Time;durP1;ratioP1;P1;durP2;ratioP2;P2;SDS_P1;SDS_P2;PMS_P1;PMS_P2;Temp;Humidity;BMP_temperature;BMP_pressure;BME280_temperature;BME280_humidity;BME280_pressure;Samples;Min_cycle;Max_cycle;Signal;HPM_P1;HPM_P2
2022/12/20 00:02:12;;;;;;;6.35;3.85;;;20.00;40.40;;;;;;5045397;28;20029;-53
2022/12/20 00:04:38;;;;;;;5.35;3.90;;;20.00;40.40;;;;;;5049696;28;20040;-54
2022/12/20 00:07:04;;;;;;;5.95;4.05;;;20.00;40.40;;;;;;5044408;28;20037;-55
2022/12/20 00:09:30;;;;;;;4.40;3.67;;;20.00;40.40;;;;;;5047684;28;20109;-51
2022/12/20 00:11:55;;;;;;;3.97;3.30;;;20.00;40.40;;;;;;5027016;28;20120;-53
2022/12/20 00:14:21;;;;;;;4.43;3.60;;;19.90;40.30;;;;;;5046673;28;20107;-53
2022/12/20 00:16:47;;;;;;;5.13;3.33;;;19.90;40.30;;;;;;5054906;28;20041;-53
2022/12/20 00:19:13;;;;;;;5.22;3.85;;;19.90;40.30;;;;;;5056243;28;20398;-55
2022/12/20 00:21:39;;;;;;;5.72;3.42;;;19.90;40.30;;;;;;5052010;28;20055;-56
2022/12/20 00:24:05;;;;;;;4.45;3.22;;;19.90;40.30;;;;;;5052236;28;20326;-54
2022/12/20 00:26:33;;;;;;;4.30;3.00;;;19.90;40.30;;;;;;5054931;28;20108;-54
2022/12/20 00:29:00;;;;;;;4.25;3.10;;;19.90;40.30;;;;;;5045083;28;20032;-53
2022/12/20 00:31:29;;;;;;;4.53;2.92;;;19.90;40.30;;;;;;5056243;28;20112;-56
2022/12/20 00:33:56;;;;;;;4.07;2.90;;;19.90;40.30;;;;;;5050357;28;20114;-52
2022/12/20 00:36:24;;;;;;;4.78;3.17;;;19.90;40.30;;;;;;5054877;28;20029;-56
2022/12/20 00:38:53;;;;;;;5.75;3.10;;;19.90;40.30;;;;;;5043135;28;20090;-55
2022/12/20 00:41:28;;;;;;;3.70;2.78;;;19.90;40.30;;;;;;5018910;28;20053;-53
2022/12/20 00:43:54;;;;;;;5.25;3.10;;;19.90;40.30;;;;;;5040310;28;20043;-56
2022/12/20 00:46:23;;;;;;;3.22;2.40;;;19.90;40.30;;;;;;5019025;28;20049;-53
2022/12/20 00:48:49;;;;;;;3.72;3.20;;;19.90;40.40;;;;;;5022321;28;20068;-54
2022/12/20 00:51:18;;;;;;;3.22;2.47;;;19.80;40.30;;;;;;5036361;28;20044;-55
2022/12/20 00:53:45;;;;;;;3.38;2.70;;;19.80;40.30;;;;;;5033324;28;20040;-50
2022/12/20 00:56:12;;;;;;;3.55;2.45;;;19.80;40.30;;;;;;5056177;28;20037;-54
2022/12/20 00:58:40;;;;;;;3.15;2.10;;;19.80;40.30;;;;;;5029202;28;20159;-54
2022/12/20 01:01:20;;;;;;;4.03;2.78;;;19.80;40.30;;;;;;5018487;28;20103;-54
2022/12/20 01:03:48;;;;;;;3.38;2.38;;;19.80;40.40;;;;;;5047643;28;20048;-57
2022/12/20 01:06:14;;;;;;;3.10;2.17;;;19.80;40.30;;;;;;5054315;28;20479;-54
2022/12/20 01:08:42;;;;;;;3.42;2.40;;;19.80;41.00;;;;;;5040700;28;20537;-54
2022/12/20 01:11:17;;;;;;;3.80;2.50;;;19.80;40.40;;;;;;5021414;28;20029;-56
2022/12/20 01:13:46;;;;;;;3.53;2.38;;;19.80;40.40;;;;;;5044222;28;20040;-54
2022/12/20 01:16:17;;;;;;;3.80;2.40;;;19.80;40.40;;;;;;5018048;28;20073;-55
2022/12/20 01:18:45;;;;;;;4.32;2.33;;;19.80;40.40;;;;;;5053483;28;20345;-52
2022/12/20 01:21:13;;;;;;;2.92;1.92;;;19.80;40.40;;;;;;5037450;28;20068;-55
2022/12/20 01:23:39;;;;;;;2.83;1.98;;;19.70;40.40;;;;;;5035683;28;20029;-55
2022/12/20 01:26:08;;;;;;;3.22;2.20;;;19.70;40.40;;;;;;5037796;28;20033;-55
2022/12/20 01:28:34;;;;;;;3.17;2.33;;;19.70;40.40;;;;;;5055738;28;20059;-54
2022/12/20 01:31:01;;;;;;;2.88;2.00;;;19.80;40.50;;;;;;5055475;28;20039;-55
2022/12/20 01:33:27;;;;;;;3.13;1.95;;;19.70;40.50;;;;;;5050872;28;20045;-57
2022/12/20 01:35:56;;;;;;;2.53;1.67;;;19.70;40.50;;;;;;5036143;28;20036;-56
2022/12/20 01:38:22;;;;;;;3.08;1.85;;;19.70;40.50;;;;;;5055370;28;20060;-54
2022/12/20 01:40:48;;;;;;;2.67;1.70;;;19.70;40.50;;;;;;5037216;28;20039;-53
2022/12/20 01:43:16;;;;;;;2.92;1.60;;;19.70;40.50;;;;;;5026134;28;20033;-51
2022/12/20 01:45:42;;;;;;;2.72;1.92;;;19.70;40.50;;;;;;5056234;28;20041;-53
2022/12/20 01:48:10;;;;;;;2.78;1.95;;;19.70;40.60;;;;;;5034257;28;20048;-53
2022/12/20 01:50:36;;;;;;;2.20;1.50;;;19.70;40.60;;;;;;5036684;28;20110;-51
2022/12/20 01:53:04;;;;;;;2.88;1.60;;;19.70;40.60;;;;;;5046836;28;20082;-53
2022/12/20 01:55:31;;;;;;;2.20;1.73;;;19.70;40.60;;;;;;5055157;28;20025;-54
2022/12/20 01:58:04;;;;;;;2.30;1.73;;;19.70;40.70;;;;;;5036795;28;20456;-53
2022/12/20 02:00:31;;;;;;;2.77;1.70;;;19.70;40.70;;;;;;5036479;28;20063;-57
2022/12/20 02:03:06;;;;;;;3.10;1.70;;;19.70;40.80;;;;;;5052647;28;20311;-54
2022/12/20 02:05:36;;;;;;;4.93;1.90;;;19.70;40.80;;;;;;5036572;28;20032;-54
2022/12/20 02:08:03;;;;;;;2.42;1.60;;;19.70;40.90;;;;;;5052919;28;20036;-53
2022/12/20 02:11:05;;;;;;;2.58;1.70;;;19.70;41.00;;;;;;5052611;28;20041;-55
2022/12/20 02:13:56;;;;;;;2.28;1.45;;;19.60;41.00;;;;;;4998560;28;20055;-52
2022/12/20 02:16:26;;;;;;;2.00;1.60;;;19.70;41.20;;;;;;5054468;28;20346;-55
2022/12/20 02:19:04;;;;;;;3.40;1.85;;;19.60;41.20;;;;;;5024025;28;20045;-55
2022/12/20 02:21:50;;;;;;;2.70;1.42;;;19.60;41.30;;;;;;5046600;28;20037;-54
2022/12/20 02:24:42;;;;;;;2.08;1.40;;;19.60;41.40;;;;;;5042759;28;20041;-50
2022/12/20 02:27:38;;;;;;;2.13;1.50;;;19.60;41.50;;;;;;5034549;28;20040;-54
2022/12/20 02:30:05;;;;;;;2.60;1.63;;;19.60;41.60;;;;;;5017259;28;20132;-56
2022/12/20 02:32:34;;;;;;;2.40;1.70;;;19.60;41.70;;;;;;5021965;28;20021;-52
2022/12/20 02:35:04;;;;;;;2.40;1.60;;;19.60;41.80;;;;;;5017662;28;20345;-51
2022/12/20 02:37:30;;;;;;;1.77;1.40;;;19.60;42.00;;;;;;5039365;28;20090;-56
2022/12/20 02:39:56;;;;;;;1.55;1.30;;;19.60;42.00;;;;;;5035488;28;20029;-53
2022/12/20 02:42:25;;;;;;;2.40;1.20;;;19.60;42.10;;;;;;5036675;28;20094;-55
2022/12/20 02:45:15;;;;;;;2.70;1.58;;;19.60;42.20;;;;;;5029244;28;20036;-52
2022/12/20 02:47:53;;;;;;;2.15;1.27;;;19.60;42.30;;;;;;5053552;28;20129;-51
2022/12/20 02:50:29;;;;;;;1.60;1.23;;;19.60;42.30;;;;;;5036712;28;20124;-51
2022/12/20 02:52:56;;;;;;;3.03;1.63;;;19.60;42.40;;;;;;5036789;28;20083;-55
2022/12/20 02:55:38;;;;;;;2.00;1.40;;;19.60;42.50;;;;;;5021519;28;20063;-50
2022/12/20 02:58:17;;;;;;;2.00;1.20;;;19.50;42.50;;;;;;5053498;28;20055;-53
2022/12/20 03:00:46;;;;;;;2.90;1.52;;;19.50;42.60;;;;;;5054411;28;20057;-54
2022/12/20 03:03:22;;;;;;;1.40;1.15;;;19.60;42.60;;;;;;5044222;28;20033;-54
2022/12/20 03:05:52;;;;;;;1.98;1.40;;;19.50;42.70;;;;;;5016975;28;20029;-52
2022/12/20 03:08:19;;;;;;;2.97;1.40;;;19.60;42.80;;;;;;5000242;28;20453;-57
2022/12/20 03:10:45;;;;;;;2.58;1.23;;;19.50;42.80;;;;;;5036641;28;20029;-53
2022/12/20 03:13:11;;;;;;;2.17;1.05;;;19.60;42.90;;;;;;5034454;28;20079;-52
2022/12/20 03:15:45;;;;;;;1.87;1.10;;;19.50;42.90;;;;;;5016359;28;20041;-53
2022/12/20 03:18:11;;;;;;;1.67;1.10;;;19.50;42.90;;;;;;5027971;28;20283;-50
2022/12/20 03:20:37;;;;;;;3.05;1.15;;;19.50;43.00;;;;;;5053324;28;20021;-51
2022/12/20 03:23:03;;;;;;;2.17;1.40;;;19.50;43.00;;;;;;5033780;28;20032;-53
2022/12/20 03:25:29;;;;;;;2.03;0.93;;;19.50;43.00;;;;;;5016626;28;20041;-53
2022/12/20 03:27:56;;;;;;;2.25;1.20;;;19.50;43.10;;;;;;5023985;28;20029;-53
2022/12/20 03:30:23;;;;;;;1.65;1.02;;;19.50;43.10;;;;;;5039932;28;20053;-53
2022/12/20 03:32:49;;;;;;;1.70;1.17;;;19.50;43.10;;;;;;5038554;28;20067;-49
2022/12/20 03:35:15;;;;;;;1.63;1.15;;;19.50;43.20;;;;;;5039671;28;20024;-56
2022/12/20 03:37:41;;;;;;;1.90;1.10;;;19.50;43.20;;;;;;5057265;28;20035;-55
2022/12/20 03:40:09;;;;;;;1.70;1.15;;;19.50;43.20;;;;;;5039442;28;20057;-51
2022/12/20 03:42:35;;;;;;;2.88;1.10;;;19.50;43.20;;;;;;5039587;28;20101;-54
2022/12/20 03:45:01;;;;;;;1.65;0.95;;;19.50;43.20;;;;;;5025264;28;20021;-54
2022/12/20 03:47:29;;;;;;;1.50;1.00;;;19.50;43.30;;;;;;5040032;28;20073;-55
2022/12/20 03:49:56;;;;;;;1.50;0.85;;;19.50;43.30;;;;;;5039471;28;20061;-54
2022/12/20 03:52:22;;;;;;;1.83;1.05;;;19.40;43.20;;;;;;5029325;28;20029;-55
2022/12/20 03:54:48;;;;;;;2.22;1.00;;;19.50;43.30;;;;;;5034659;28;20025;-54
2022/12/20 03:57:18;;;;;;;2.15;1.30;;;19.40;43.30;;;;;;5021299;28;20112;-52
2022/12/20 03:59:46;;;;;;;2.08;1.40;;;19.40;43.30;;;;;;5039117;28;20041;-55
2022/12/20 04:02:14;;;;;;;1.65;0.80;;;19.40;43.30;;;;;;5039760;28;20043;-52
2022/12/20 04:04:40;;;;;;;1.90;0.80;;;19.40;43.30;;;;;;5038675;28;20033;-54
2022/12/20 04:07:07;;;;;;;1.42;0.95;;;19.40;43.30;;;;;;5039267;28;20134;-54
2022/12/20 04:09:35;;;;;;;1.63;1.10;;;19.40;43.30;;;;;;5030989;28;20345;-52
2022/12/20 04:12:09;;;;;;;1.73;1.05;;;19.40;43.30;;;;;;5028769;28;20040;-54
2022/12/20 04:14:37;;;;;;;2.03;1.10;;;19.40;43.30;;;;;;5038837;28;20028;-51
2022/12/20 04:17:04;;;;;;;1.10;0.90;;;19.40;43.30;;;;;;5032726;28;20053;-52
2022/12/20 04:19:30;;;;;;;2.75;0.93;;;19.40;43.30;;;;;;5035360;28;20034;-54
2022/12/20 04:21:57;;;;;;;1.58;1.00;;;19.40;43.30;;;;;;5034821;28;20069;-53
2022/12/20 04:24:24;;;;;;;1.33;1.00;;;19.40;43.30;;;;;;5026209;28;20053;-51
2022/12/20 04:27:11;;;;;;;2.33;0.70;;;19.40;43.30;;;;;;5027242;28;20047;-51
2022/12/20 04:29:38;;;;;;;1.48;0.90;;;19.40;43.30;;;;;;5014491;28;20029;-52
2022/12/20 04:32:06;;;;;;;1.27;0.90;;;19.40;43.40;;;;;;5035716;28;20135;-49
2022/12/20 04:34:32;;;;;;;2.13;1.13;;;19.40;43.30;;;;;;5024816;28;20354;-47
2022/12/20 04:36:58;;;;;;;1.40;0.90;;;19.40;43.40;;;;;;5015849;28;20041;-55
2022/12/20 04:39:37;;;;;;;1.80;1.15;;;19.40;43.40;;;;;;5035774;28;20456;-51
2022/12/20 04:42:18;;;;;;;1.70;0.90;;;19.40;43.40;;;;;;5033700;28;20476;-52
2022/12/20 04:44:45;;;;;;;2.00;1.17;;;19.40;43.40;;;;;;5034058;28;20037;-50
2022/12/20 04:47:13;;;;;;;2.13;1.20;;;19.40;43.40;;;;;;5035248;28;20041;-53
2022/12/20 04:49:38;;;;;;;1.30;1.00;;;19.40;43.40;;;;;;5036642;28;20417;-54
2022/12/20 04:54:49;;;;;;;1.25;0.90;;;19.40;43.40;;;;;;5029249;28;20075;-55
2022/12/20 04:57:21;;;;;;;1.63;1.08;;;19.40;43.40;;;;;;5026445;28;20036;-49
2022/12/20 04:59:48;;;;;;;1.95;1.05;;;19.40;43.40;;;;;;5035733;28;20456;-51
2022/12/20 05:02:13;;;;;;;1.13;0.77;;;19.30;43.40;;;;;;5055106;28;20044;-52
2022/12/20 05:04:48;;;;;;;1.77;1.00;;;19.30;43.40;;;;;;5030674;28;20026;-53
2022/12/20 05:07:14;;;;;;;1.13;0.70;;;19.40;43.50;;;;;;5015271;28;20412;-49
2022/12/20 05:09:45;;;;;;;1.48;0.88;;;19.30;43.40;;;;;;5023517;28;20037;-50
2022/12/20 05:12:11;;;;;;;1.40;0.80;;;19.30;43.50;;;;;;5023270;28;20029;-50
2022/12/20 05:14:37;;;;;;;2.15;1.00;;;19.30;43.50;;;;;;5023713;28;20441;-51
2022/12/20 05:17:03;;;;;;;1.27;0.80;;;19.30;43.50;;;;;;5016717;28;20049;-52
2022/12/20 05:19:29;;;;;;;2.58;1.00;;;19.30;43.60;;;;;;5015005;28;20136;-53
2022/12/20 05:27:31;;;;;;;1.65;0.95;;;19.30;43.70;;;;;;5034573;28;20102;-51
2022/12/20 05:29:57;;;;;;;1.52;0.85;;;19.30;44.40;;;;;;5034553;28;20033;-53
2022/12/20 05:32:24;;;;;;;1.02;0.70;;;19.30;43.90;;;;;;5032910;28;20110;-52
2022/12/20 05:34:53;;;;;;;1.30;0.77;;;19.30;43.90;;;;;;5034034;28;20037;-49
2022/12/20 05:37:19;;;;;;;1.42;0.80;;;19.30;44.00;;;;;;5029945;28;20022;-56
2022/12/20 05:39:45;;;;;;;1.48;0.95;;;19.40;44.10;;;;;;5022989;28;20064;-54
2022/12/20 05:42:17;;;;;;;1.88;0.80;;;19.30;44.10;;;;;;5033654;28;20025;-55
2022/12/20 05:44:43;;;;;;;1.70;0.75;;;19.30;44.20;;;;;;5025319;28;20026;-55
2022/12/20 05:47:09;;;;;;;1.10;0.90;;;19.30;44.20;;;;;;5014930;28;20408;-55
2022/12/20 05:49:36;;;;;;;1.10;0.70;;;19.40;44.30;;;;;;5014781;28;20040;-53
2022/12/20 05:52:04;;;;;;;1.02;0.90;;;19.40;44.40;;;;;;5017700;28;20041;-53
2022/12/20 05:54:30;;;;;;;2.17;0.80;;;19.30;44.40;;;;;;5023243;28;20049;-52
2022/12/20 05:57:10;;;;;;;1.58;0.80;;;19.30;44.40;;;;;;5032242;28;20138;-52
2022/12/20 05:59:40;;;;;;;1.35;0.90;;;19.40;44.50;;;;;;5033786;28;20033;-50
2022/12/20 06:02:12;;;;;;;1.50;0.90;;;19.40;44.60;;;;;;5033108;28;20111;-52
2022/12/20 06:04:39;;;;;;;2.45;0.77;;;19.40;44.70;;;;;;5026932;28;20033;-54
2022/12/20 06:07:13;;;;;;;1.75;0.88;;;19.30;44.60;;;;;;5013632;28;20053;-52
2022/12/20 06:09:42;;;;;;;1.02;0.80;;;19.30;44.70;;;;;;5028326;28;20033;-53
2022/12/20 06:12:12;;;;;;;1.38;0.85;;;19.30;44.70;;;;;;5035073;28;20033;-51
2022/12/20 06:14:39;;;;;;;1.98;0.70;;;19.40;44.80;;;;;;5031880;28;20033;-53
2022/12/20 06:17:05;;;;;;;1.25;0.82;;;19.40;44.80;;;;;;5031164;28;20060;-52
2022/12/20 06:19:31;;;;;;;1.98;0.90;;;19.30;44.70;;;;;;5013575;28;20122;-52
2022/12/20 06:21:59;;;;;;;1.48;0.88;;;19.40;44.80;;;;;;5013854;28;20091;-55
2022/12/20 06:24:37;;;;;;;1.25;0.77;;;19.40;44.80;;;;;;5019234;28;20369;-53
2022/12/20 06:27:03;;;;;;;1.58;0.70;;;19.30;44.70;;;;;;5013926;28;20037;-52
2022/12/20 06:29:29;;;;;;;1.58;0.85;;;19.40;44.80;;;;;;5014119;28;20350;-53
2022/12/20 06:32:04;;;;;;;2.28;0.70;;;19.40;44.80;;;;;;5014007;28;20117;-53
2022/12/20 06:34:31;;;;;;;1.63;0.65;;;19.40;44.70;;;;;;5018695;28;20476;-52
2022/12/20 06:36:57;;;;;;;1.30;0.73;;;19.40;44.80;;;;;;5022758;28;20029;-55
2022/12/20 06:39:26;;;;;;;2.70;0.80;;;19.40;44.80;;;;;;5017809;28;20091;-55
2022/12/20 06:42:00;;;;;;;1.42;0.68;;;19.40;44.80;;;;;;5032888;28;20037;-56
2022/12/20 06:44:26;;;;;;;0.80;0.60;;;19.40;44.80;;;;;;5026857;28;20026;-51
2022/12/20 06:46:52;;;;;;;1.75;0.60;;;19.40;44.70;;;;;;5026534;28;20029;-54
2022/12/20 06:49:19;;;;;;;1.38;0.80;;;19.40;44.70;;;;;;5033954;28;20033;-50
2022/12/20 06:51:45;;;;;;;1.02;0.60;;;19.40;44.70;;;;;;5032080;28;20037;-53
2022/12/20 06:54:11;;;;;;;1.50;0.70;;;19.40;44.70;;;;;;5032115;28;20108;-53
2022/12/20 06:56:37;;;;;;;1.23;0.80;;;19.40;44.70;;;;;;5033615;28;20180;-56
2022/12/20 06:59:07;;;;;;;0.80;0.70;;;19.30;44.60;;;;;;5037320;28;20025;-51
2022/12/20 07:01:33;;;;;;;0.60;0.60;;;19.40;44.70;;;;;;5024029;28;20036;-54
2022/12/20 07:03:59;;;;;;;0.95;0.65;;;19.40;44.70;;;;;;5034005;28;20037;-53
2022/12/20 07:06:26;;;;;;;1.83;0.63;;;19.30;44.60;;;;;;5027668;28;20021;-55
2022/12/20 07:08:51;;;;;;;1.85;0.70;;;19.40;44.70;;;;;;5037335;28;20033;-53
2022/12/20 07:11:17;;;;;;;1.15;0.68;;;19.40;44.60;;;;;;5037217;28;20113;-54
2022/12/20 07:13:43;;;;;;;1.33;0.82;;;19.40;44.60;;;;;;5029210;28;20030;-57
2022/12/20 07:16:09;;;;;;;0.98;0.60;;;19.40;44.60;;;;;;5029188;28;20045;-56
2022/12/20 07:18:35;;;;;;;1.20;0.70;;;19.40;44.60;;;;;;5019311;28;20335;-54
2022/12/20 07:21:03;;;;;;;1.98;0.90;;;19.40;44.50;;;;;;5031310;28;20052;-51
2022/12/20 07:23:29;;;;;;;0.93;0.68;;;19.40;44.50;;;;;;5037765;28;20094;-55
2022/12/20 07:25:55;;;;;;;1.42;0.80;;;19.40;44.50;;;;;;5031509;28;20041;-54
2022/12/20 07:28:22;;;;;;;1.13;0.77;;;19.40;44.50;;;;;;5017895;28;20044;-54
2022/12/20 07:30:48;;;;;;;2.67;0.85;;;19.40;44.50;;;;;;5028481;28;20033;-52
2022/12/20 07:33:14;;;;;;;2.35;0.77;;;19.40;44.40;;;;;;5031264;28;20045;-50
2022/12/20 07:35:42;;;;;;;1.45;0.80;;;19.40;44.40;;;;;;5033906;28;20034;-57
2022/12/20 07:38:08;;;;;;;1.90;0.80;;;19.40;44.40;;;;;;5026599;28;20038;-51
2022/12/20 07:40:34;;;;;;;1.17;0.60;;;19.40;44.50;;;;;;5027175;28;20040;-54
2022/12/20 07:43:00;;;;;;;1.48;0.60;;;19.40;44.50;;;;;;5036339;28;20095;-55
2022/12/20 07:45:26;;;;;;;1.73;0.60;;;19.40;44.40;;;;;;5035038;28;20037;-56
2022/12/20 07:47:52;;;;;;;1.38;0.70;;;19.40;44.40;;;;;;5028183;28;20104;-53
2022/12/20 07:50:18;;;;;;;1.15;0.50;;;19.50;44.50;;;;;;5024388;28;20504;-54
2022/12/20 07:52:45;;;;;;;1.90;0.70;;;19.50;44.40;;;;;;5025927;28;20179;-51
2022/12/20 07:55:12;;;;;;;1.90;0.75;;;19.50;44.40;;;;;;5025278;28;20033;-53
2022/12/20 07:57:55;;;;;;;1.92;0.60;;;19.50;44.30;;;;;;5024037;28;20025;-53
2022/12/20 08:00:22;;;;;;;1.83;0.80;;;19.70;44.30;;;;;;5027690;28;20093;-55
2022/12/20 08:02:56;;;;;;;1.23;0.70;;;19.70;44.10;;;;;;5024904;28;20033;-53
2022/12/20 08:05:23;;;;;;;1.30;0.60;;;19.70;44.00;;;;;;5023125;28;20048;-54
2022/12/20 08:07:49;;;;;;;1.45;0.75;;;19.80;43.90;;;;;;5025127;28;20033;-50
2022/12/20 08:10:18;;;;;;;1.80;0.60;;;19.90;43.80;;;;;;5024003;28;20029;-55
2022/12/20 08:12:46;;;;;;;2.38;0.85;;;20.00;43.70;;;;;;5027180;28;20082;-56
2022/12/20 08:15:13;;;;;;;1.33;0.82;;;20.00;43.60;;;;;;5025942;28;20030;-51
2022/12/20 08:17:39;;;;;;;2.25;0.70;;;20.10;43.50;;;;;;5043704;28;20052;-55
2022/12/20 08:20:07;;;;;;;1.88;0.70;;;20.20;43.40;;;;;;5046792;28;20033;-51
2022/12/20 08:22:34;;;;;;;1.60;0.55;;;20.20;43.30;;;;;;5043576;28;20090;-55
2022/12/20 08:25:00;;;;;;;1.83;0.60;;;20.30;43.20;;;;;;5025113;28;20045;-48
2022/12/20 08:27:26;;;;;;;1.55;0.73;;;20.40;43.10;;;;;;5045492;28;20041;-53
2022/12/20 08:29:52;;;;;;;0.90;0.60;;;20.40;43.00;;;;;;5042048;28;20029;-53
2022/12/20 08:32:17;;;;;;;2.13;0.70;;;20.50;42.90;;;;;;5046247;28;20025;-51
2022/12/20 08:34:43;;;;;;;1.33;0.73;;;20.60;42.80;;;;;;5044686;28;20098;-49
2022/12/20 08:37:10;;;;;;;1.33;0.63;;;20.60;42.70;;;;;;5048341;28;20479;-54
2022/12/20 08:39:36;;;;;;;2.33;0.65;;;20.70;42.80;;;;;;5048433;28;20116;-52
2022/12/20 08:42:04;;;;;;;1.88;0.50;;;20.70;42.70;;;;;;5049942;28;20108;-53
2022/12/20 08:44:29;;;;;;;0.70;0.55;;;20.80;42.70;;;;;;5025521;28;20476;-52
2022/12/20 08:46:55;;;;;;;1.60;0.63;;;20.90;42.60;;;;;;5055367;28;20029;-50
2022/12/20 08:49:21;;;;;;;2.25;0.60;;;20.90;42.50;;;;;;5056436;28;20029;-53
2022/12/20 08:51:47;;;;;;;1.58;0.70;;;20.90;42.40;;;;;;5055791;28;20047;-53
2022/12/20 08:54:13;;;;;;;1.75;0.88;;;21.00;42.30;;;;;;5038694;28;20353;-51
2022/12/20 08:56:39;;;;;;;0.93;0.70;;;21.00;42.20;;;;;;5053234;28;20115;-49
2022/12/20 08:59:05;;;;;;;1.08;0.60;;;21.10;42.10;;;;;;5059447;28;20047;-51
2022/12/20 09:01:32;;;;;;;1.75;0.73;;;21.10;42.00;;;;;;5056918;28;20155;-53
2022/12/20 09:03:58;;;;;;;0.73;0.43;;;21.20;42.00;;;;;;5053659;28;20237;-54
2022/12/20 09:06:24;;;;;;;2.22;0.95;;;21.20;41.90;;;;;;5055150;28;20079;-52
2022/12/20 09:08:50;;;;;;;0.88;0.68;;;21.20;41.80;;;;;;5055015;28;20128;-55
2022/12/20 09:11:24;;;;;;;2.20;0.60;;;21.30;41.80;;;;;;5055758;28;20074;-49
2022/12/20 09:13:53;;;;;;;0.87;0.60;;;21.30;41.70;;;;;;5055990;28;20121;-50
2022/12/20 09:16:21;;;;;;;1.23;0.52;;;21.30;42.30;;;;;;5055363;28;20727;-52
2022/12/20 09:18:49;;;;;;;1.38;0.65;;;21.30;41.60;;;;;;5055323;28;20455;-50
2022/12/20 09:21:15;;;;;;;0.95;0.40;;;21.40;41.60;;;;;;5055050;28;20371;-51
2022/12/20 09:23:41;;;;;;;1.42;0.60;;;21.40;41.50;;;;;;5056072;28;20441;-52
2022/12/20 09:26:11;;;;;;;1.88;0.57;;;21.40;41.50;;;;;;5054388;28;20029;-52
2022/12/20 09:28:37;;;;;;;0.73;0.60;;;21.40;41.50;;;;;;5055607;28;20425;-50
2022/12/20 09:31:06;;;;;;;1.35;0.60;;;21.50;41.50;;;;;;5037790;28;20029;-55
2022/12/20 09:33:33;;;;;;;1.23;0.60;;;21.50;41.50;;;;;;5055429;28;20029;-52
2022/12/20 09:36:00;;;;;;;0.63;0.40;;;21.50;41.40;;;;;;5055070;28;20044;-52
2022/12/20 09:38:27;;;;;;;1.58;0.70;;;21.50;41.40;;;;;;5055546;28;20032;-54
2022/12/20 09:41:00;;;;;;;1.40;0.60;;;21.50;41.40;;;;;;5055049;28;20033;-52
2022/12/20 09:43:27;;;;;;;1.42;0.60;;;21.50;41.40;;;;;;5054883;28;20464;-54
2022/12/20 09:45:59;;;;;;;0.65;0.40;;;21.50;41.40;;;;;;5055316;28;20036;-55
2022/12/20 09:48:32;;;;;;;0.47;0.40;;;21.60;41.40;;;;;;5054955;28;20041;-52
2022/12/20 09:51:29;;;;;;;1.02;0.57;;;21.60;41.40;;;;;;5017781;28;20044;-54
2022/12/20 09:54:00;;;;;;;0.70;0.50;;;21.60;41.40;;;;;;5035432;28;20025;-53
2022/12/20 09:56:36;;;;;;;1.08;0.63;;;21.60;41.40;;;;;;5035073;28;20532;-52
2022/12/20 09:59:11;;;;;;;1.48;0.60;;;21.60;41.40;;;;;;5043151;28;20024;-46
2022/12/20 10:01:41;;;;;;;1.02;0.47;;;21.60;41.40;;;;;;5075357;28;20062;-53
2022/12/20 10:04:20;;;;;;;1.33;0.50;;;21.60;41.50;;;;;;5053946;28;20117;-53
2022/12/20 10:06:46;;;;;;;0.60;0.50;;;21.60;41.80;;;;;;5051629;28;20581;-55
2022/12/20 10:09:37;;;;;;;1.55;0.70;;;21.60;42.00;;;;;;5049592;28;20033;-53
2022/12/20 10:12:26;;;;;;;1.38;0.50;;;21.60;42.20;;;;;;5049949;28;20029;-56
2022/12/20 10:15:04;;;;;;;1.65;0.55;;;21.60;42.30;;;;;;5051065;28;20025;-57
2022/12/20 10:17:59;;;;;;;2.40;0.90;;;21.60;42.40;;;;;;5049960;28;20063;-56
2022/12/20 10:20:48;;;;;;;1.27;0.57;;;21.60;42.40;;;;;;5012459;28;20037;-56
2022/12/20 10:23:36;;;;;;;1.13;0.70;;;21.60;42.40;;;;;;5035101;28;20049;-55
2022/12/20 10:26:08;;;;;;;1.35;0.52;;;21.60;42.40;;;;;;5030659;28;20072;-53
2022/12/20 10:28:35;;;;;;;1.45;0.63;;;21.60;42.40;;;;;;5035333;28;20073;-57
2022/12/20 10:31:10;;;;;;;1.67;0.70;;;21.60;42.40;;;;;;5054556;28;20025;-55
2022/12/20 10:33:36;;;;;;;0.95;0.50;;;21.60;42.40;;;;;;5036494;28;20357;-53
2022/12/20 10:36:26;;;;;;;1.13;0.52;;;21.60;42.40;;;;;;5036162;28;20048;-55
2022/12/20 10:38:54;;;;;;;2.30;0.70;;;21.60;42.40;;;;;;5057895;28;20032;-51
2022/12/20 10:41:23;;;;;;;0.98;0.47;;;21.60;42.40;;;;;;5058743;28;20029;-53
2022/12/20 10:43:53;;;;;;;2.30;0.68;;;21.60;42.40;;;;;;5058622;28;20033;-52
2022/12/20 10:46:19;;;;;;;0.70;0.50;;;21.60;42.40;;;;;;5058520;28;20025;-52
2022/12/20 10:48:47;;;;;;;1.10;0.60;;;21.60;42.40;;;;;;5055812;28;20118;-54
2022/12/20 10:51:24;;;;;;;1.88;0.50;;;21.60;42.40;;;;;;5053394;28;20079;-55
2022/12/20 10:53:49;;;;;;;1.10;0.60;;;21.60;42.40;;;;;;5055945;28;20108;-52
2022/12/20 10:56:28;;;;;;;1.67;0.65;;;21.60;42.50;;;;;;5052861;28;20112;-53
2022/12/20 10:59:01;;;;;;;0.85;0.43;;;21.60;42.50;;;;;;5034565;28;20086;-55
2022/12/20 11:01:33;;;;;;;0.75;0.50;;;21.60;42.50;;;;;;5035024;28;20103;-53
2022/12/20 11:04:03;;;;;;;0.68;0.40;;;21.60;42.50;;;;;;5054077;28;20116;-56
2022/12/20 11:06:40;;;;;;;0.52;0.35;;;21.60;42.60;;;;;;5053903;28;20472;-52
2022/12/20 11:09:33;;;;;;;2.03;0.70;;;21.60;42.60;;;;;;5037036;28;20403;-53
2022/12/20 11:12:19;;;;;;;2.17;0.70;;;21.60;42.60;;;;;;5053692;28;20052;-55
2022/12/20 11:14:46;;;;;;;1.88;0.50;;;21.60;42.60;;;;;;5052465;28;20043;-54
2022/12/20 11:17:24;;;;;;;1.05;0.43;;;21.60;42.70;;;;;;5053892;28;20102;-50
2022/12/20 11:20:17;;;;;;;1.30;0.55;;;21.60;42.60;;;;;;5049893;28;20361;-55
2022/12/20 11:23:06;;;;;;;1.85;0.50;;;21.70;42.70;;;;;;5030389;28;20037;-56
2022/12/20 11:26:03;;;;;;;2.95;0.60;;;21.70;43.00;;;;;;5048258;28;20036;-57
2022/12/20 11:28:51;;;;;;;1.15;0.60;;;21.70;43.30;;;;;;5050393;28;20072;-55
2022/12/20 11:31:17;;;;;;;1.08;0.50;;;21.70;43.50;;;;;;5053117;28;20025;-58
2022/12/20 11:34:11;;;;;;;2.65;0.75;;;21.80;43.70;;;;;;5051331;28;20021;-57
2022/12/20 11:36:52;;;;;;;0.82;0.60;;;21.80;43.60;;;;;;5044734;28;20033;-50
2022/12/20 11:39:18;;;;;;;2.25;0.60;;;21.80;43.50;;;;;;5046727;28;20029;-50
2022/12/20 11:42:09;;;;;;;1.15;0.63;;;21.90;43.40;;;;;;5030529;28;20040;-51
2022/12/20 11:45:00;;;;;;;0.70;0.60;;;22.00;43.30;;;;;;5048424;28;20037;-54
2022/12/20 11:47:32;;;;;;;1.10;0.70;;;22.10;43.10;;;;;;5045175;28;20040;-49
2022/12/20 11:50:16;;;;;;;2.90;0.60;;;22.20;43.00;;;;;;5026332;28;20056;-55
2022/12/20 11:53:03;;;;;;;3.20;0.60;;;22.30;43.00;;;;;;5046475;28;20025;-57
2022/12/20 11:55:34;;;;;;;0.70;0.60;;;22.50;42.90;;;;;;5046572;28;20031;-57
2022/12/20 11:58:04;;;;;;;3.13;0.70;;;22.60;42.80;;;;;;5049028;28;20036;-57
2022/12/20 12:00:34;;;;;;;1.92;0.60;;;22.70;42.70;;;;;;5047740;28;20039;-50
2022/12/20 12:03:11;;;;;;;3.35;0.50;;;22.70;42.50;;;;;;5046783;28;20032;-56
2022/12/20 12:05:52;;;;;;;1.48;0.95;;;22.80;42.40;;;;;;5046974;28;20091;-52
2022/12/20 12:08:24;;;;;;;1.02;0.63;;;22.90;42.30;;;;;;5028440;28;20041;-49
2022/12/20 12:11:05;;;;;;;1.42;0.63;;;23.00;42.10;;;;;;5049215;28;20032;-54
2022/12/20 12:13:35;;;;;;;1.67;0.50;;;23.00;42.00;;;;;;5046381;28;20025;-56
2022/12/20 12:16:26;;;;;;;2.85;0.70;;;23.10;41.90;;;;;;5049702;28;20618;-54
2022/12/20 12:18:52;;;;;;;3.80;0.65;;;23.20;41.90;;;;;;5048945;28;20025;-55
2022/12/20 12:21:27;;;;;;;0.75;0.60;;;23.20;41.80;;;;;;5026390;28;20147;-55
2022/12/20 12:24:19;;;;;;;1.17;0.60;;;23.30;41.80;;;;;;5049828;28;20448;-52
2022/12/20 12:26:45;;;;;;;3.05;0.68;;;23.30;41.70;;;;;;5050271;28;20071;-56
2022/12/20 12:29:18;;;;;;;1.40;0.60;;;23.30;41.70;;;;;;5049482;28;20353;-55
2022/12/20 12:32:01;;;;;;;2.40;0.77;;;23.40;41.70;;;;;;5031316;28;20032;-56
2022/12/20 12:34:45;;;;;;;2.25;0.75;;;23.40;41.80;;;;;;5049817;28;20037;-57
2022/12/20 12:37:48;;;;;;;1.27;0.70;;;23.40;41.90;;;;;;5049835;28;20037;-56
2022/12/20 12:40:41;;;;;;;5.07;0.90;;;23.40;41.90;;;;;;5047809;28;20032;-51
2022/12/20 12:43:35;;;;;;;3.05;0.90;;;23.50;42.00;;;;;;5041345;28;20130;-53
2022/12/20 12:46:08;;;;;;;3.03;0.95;;;23.50;41.90;;;;;;5049304;28;20025;-52
2022/12/20 12:48:47;;;;;;;1.73;0.93;;;23.60;41.90;;;;;;5050498;28;20042;-56
2022/12/20 12:51:19;;;;;;;2.55;0.90;;;23.50;41.80;;;;;;5047479;28;20116;-54
2022/12/20 12:53:50;;;;;;;3.65;0.90;;;23.60;41.70;;;;;;5049849;28;20060;-57
2022/12/20 12:56:35;;;;;;;1.98;0.90;;;23.60;41.60;;;;;;5049634;28;20391;-57
2022/12/20 12:59:10;;;;;;;3.67;1.15;;;23.60;41.50;;;;;;5049915;28;20025;-51
2022/12/20 13:02:16;;;;;;;3.42;1.33;;;23.70;41.50;;;;;;5047240;28;20024;-57
2022/12/20 13:04:59;;;;;;;3.03;0.80;;;23.70;41.40;;;;;;4950150;28;20041;-60
2022/12/20 13:07:38;;;;;;;2.83;0.82;;;23.70;41.30;;;;;;4968297;28;20070;-56
2022/12/20 13:10:07;;;;;;;2.28;0.93;;;23.70;41.30;;;;;;5019811;28;20051;-58
2022/12/20 13:12:37;;;;;;;1.80;0.85;;;23.70;41.30;;;;;;5047391;28;20056;-58
2022/12/20 13:15:21;;;;;;;3.35;0.85;;;23.70;41.30;;;;;;5030097;28;20060;-60
2022/12/20 13:17:55;;;;;;;;;;;23.80;41.30;;;;;;5047654;28;20170;-56